createdAt,value
2022-08-07T00:02:35.825Z,16.75
2022-08-07T00:06:52.516Z,16.69
2022-08-07T00:12:29.806Z,16.62
2022-08-07T00:16:44.050Z,16.62
2022-08-07T00:21:55.631Z,16.50
2022-08-07T00:26:49.635Z,16.50
2022-08-07T00:36:47.747Z,16.37
2022-08-07T00:41:53.383Z,16.31
2022-08-07T00:51:57.844Z,16.25
2022-08-07T00:56:43.711Z,16.19
2022-08-07T01:01:44.300Z,16.12
2022-08-07T01:06:37.200Z,16.12
2022-08-07T01:12:05.260Z,16.06
2022-08-07T01:16:38.530Z,16.00
2022-08-07T01:21:42.528Z,16.00
2022-08-07T01:31:48.391Z,15.88
2022-08-07T01:42:07.817Z,15.75
2022-08-07T01:46:48.317Z,15.75
2022-08-07T01:56:41.781Z,15.69
2022-08-07T02:06:43.701Z,15.63
2022-08-07T02:12:03.135Z,15.56
2022-08-07T02:17:49.269Z,15.56
2022-08-07T02:21:55.699Z,15.44
2022-08-07T02:26:47.718Z,15.50
2022-08-07T02:36:42.101Z,15.44
2022-08-07T02:41:50.940Z,15.38
2022-08-07T02:46:52.612Z,15.31
2022-08-07T02:51:50.005Z,15.31
2022-08-07T02:56:55.661Z,15.25
2022-08-07T03:01:47.156Z,15.19
2022-08-07T03:11:57.693Z,15.13
2022-08-07T03:22:29.475Z,15.00
2022-08-07T03:26:58.029Z,14.94
2022-08-07T03:36:51.930Z,14.88
2022-08-07T03:43:02.768Z,14.88
2022-08-07T03:47:11.571Z,14.81
2022-08-07T03:52:01.406Z,14.75
2022-08-07T03:57:03.818Z,14.69
2022-08-07T04:01:56.137Z,14.69
2022-08-07T04:06:56.868Z,14.63
2022-08-07T04:12:26.007Z,14.63
2022-08-07T04:17:03.819Z,14.63
2022-08-07T04:22:05.564Z,14.56
2022-08-07T04:26:59.825Z,14.56
2022-08-07T04:32:09.901Z,14.50
2022-08-07T04:37:07.936Z,14.50
2022-08-07T04:42:02.173Z,14.44
2022-08-07T04:47:05.164Z,14.38
2022-08-07T04:52:08.684Z,14.38
2022-08-07T04:58:08.945Z,14.31
2022-08-07T05:02:11.281Z,14.31
2022-08-07T05:07:09.527Z,14.31
2022-08-07T05:12:11.438Z,14.31
2022-08-07T05:17:12.248Z,14.38
2022-08-07T05:22:12.957Z,14.44
2022-08-07T05:27:14.395Z,14.50
2022-08-07T05:32:14.375Z,14.56
2022-08-07T05:37:10.342Z,14.69
2022-08-07T05:42:15.929Z,14.81
2022-08-07T05:47:18.529Z,14.88
2022-08-07T05:52:20.015Z,14.94
2022-08-07T05:57:18.134Z,15.06
2022-08-07T06:02:18.857Z,15.13
2022-08-07T06:07:22.863Z,15.25
2022-08-07T06:12:20.811Z,15.38
2022-08-07T06:17:16.425Z,15.44
2022-08-07T06:22:23.719Z,15.56
2022-08-07T06:27:18.923Z,15.69
2022-08-07T06:32:18.715Z,15.75
2022-08-07T06:37:20.394Z,15.88
2022-08-07T06:43:35.977Z,16.00
2022-08-07T06:48:28.656Z,16.12
2022-08-07T06:57:30.710Z,16.37
2022-08-07T07:08:01.132Z,16.62
2022-08-07T07:12:31.413Z,16.75
2022-08-07T07:17:25.028Z,16.81
2022-08-07T07:22:34.285Z,16.94
2022-08-07T07:27:26.497Z,17.06
2022-08-07T07:33:26.152Z,17.19
2022-08-07T07:42:32.671Z,17.44
2022-08-07T07:47:43.062Z,17.56
2022-08-07T07:53:13.737Z,17.69
2022-08-07T07:57:44.311Z,17.81
2022-08-07T08:02:34.359Z,17.94
2022-08-07T08:07:35.550Z,18.00
2022-08-07T08:12:51.478Z,18.12
2022-08-07T08:17:56.814Z,18.25
2022-08-07T08:22:34.047Z,18.37
2022-08-07T08:27:56.186Z,18.50
2022-08-07T08:33:24.987Z,18.62
2022-08-07T08:38:19.819Z,18.69
2022-08-07T08:41:58.202Z,18.81
2022-08-07T08:46:45.913Z,18.94
2022-08-07T08:52:01.053Z,19.00
2022-08-07T08:56:47.148Z,19.12
2022-08-07T09:01:52.770Z,19.25
2022-08-07T09:06:53.219Z,19.37
2022-08-07T09:11:51.301Z,19.44
2022-08-07T09:16:49.783Z,19.56
2022-08-07T09:22:10.434Z,19.62
2022-08-07T09:27:02.091Z,19.75
2022-08-07T09:31:51.917Z,19.87
2022-08-07T09:36:57.430Z,20.00
2022-08-07T09:41:58.742Z,20.06
2022-08-07T09:47:26.470Z,20.19
2022-08-07T09:52:17.011Z,20.25
2022-08-07T09:56:55.326Z,20.37
2022-08-07T10:01:56.063Z,20.50
2022-08-07T10:07:01.598Z,20.62
2022-08-07T10:12:04.643Z,20.75
2022-08-07T10:17:03.752Z,20.87
2022-08-07T10:22:12.692Z,21.00
2022-08-07T10:27:06.783Z,21.06
2022-08-07T10:32:05.075Z,21.19
2022-08-07T10:37:03.879Z,21.25
2022-08-07T10:42:09.623Z,21.37
2022-08-07T10:47:05.644Z,21.50
2022-08-07T10:52:12.854Z,21.62
2022-08-07T10:57:11.254Z,21.69
2022-08-07T11:02:27.450Z,21.81
2022-08-07T11:07:15.302Z,21.87
2022-08-07T11:12:09.468Z,22.00
2022-08-07T11:17:23.052Z,22.12
2022-08-07T11:22:11.232Z,22.19
2022-08-07T11:27:18.195Z,22.31
2022-08-07T11:32:25.635Z,22.37
2022-08-07T11:37:38.237Z,22.50
2022-08-07T11:46:48.635Z,22.69
2022-08-07T11:51:42.080Z,22.75
2022-08-07T11:56:43.637Z,22.81
2022-08-07T12:01:58.938Z,22.87
2022-08-07T12:06:50.810Z,22.94
2022-08-07T12:12:09.847Z,22.94
2022-08-07T12:16:44.146Z,22.94
2022-08-07T12:21:55.291Z,22.94
2022-08-07T12:26:50.302Z,22.94
2022-08-07T12:32:02.386Z,22.94
2022-08-07T12:36:49.486Z,22.87
2022-08-07T12:41:49.647Z,22.87
2022-08-07T12:46:53.081Z,22.87
2022-08-07T12:52:12.621Z,22.87
2022-08-07T12:56:59.045Z,22.87
2022-08-07T13:01:57.953Z,22.87
2022-08-07T13:07:01.427Z,22.87
2022-08-07T13:12:02.852Z,22.87
2022-08-07T13:16:55.099Z,22.87
2022-08-07T13:22:04.066Z,22.87
2022-08-07T13:26:56.632Z,22.94
2022-08-07T13:31:58.155Z,22.94
2022-08-07T13:37:04.277Z,23.00
2022-08-07T13:42:01.293Z,23.00
2022-08-07T13:47:09.280Z,23.06
2022-08-07T13:52:23.317Z,23.06
2022-08-07T13:57:03.797Z,23.06
2022-08-07T14:02:05.125Z,23.06
2022-08-07T14:07:10.037Z,23.06
2022-08-07T14:12:10.710Z,23.06
2022-08-07T14:17:12.957Z,23.06
2022-08-07T14:22:11.526Z,23.06
2022-08-07T14:27:16.020Z,23.06
2022-08-07T14:32:15.880Z,23.06
2022-08-07T14:37:16.226Z,23.06
2022-08-07T14:42:19.087Z,23.06
2022-08-07T14:47:14.809Z,23.06
2022-08-07T14:52:18.736Z,23.06
2022-08-07T14:57:19.953Z,23.12
2022-08-07T15:02:32.265Z,23.06
2022-08-07T15:07:16.565Z,23.12
2022-08-07T15:13:06.053Z,23.12
2022-08-07T15:17:17.132Z,23.12
2022-08-07T15:22:31.241Z,23.19
2022-08-07T15:27:21.227Z,23.19
2022-08-07T15:32:38.806Z,23.19
2022-08-07T15:42:45.529Z,23.25
2022-08-07T15:48:00.561Z,23.19
2022-08-07T15:52:29.832Z,23.25
2022-08-07T15:57:40.412Z,23.25
2022-08-07T16:02:31.041Z,23.25
2022-08-07T16:07:32.061Z,23.19
2022-08-07T16:12:31.350Z,23.19
2022-08-07T16:18:01.001Z,23.19
2022-08-07T16:22:37.616Z,23.12
2022-08-07T16:27:40.485Z,23.12
2022-08-07T16:32:37.876Z,23.06
2022-08-07T16:38:03.307Z,23.06
2022-08-07T16:42:38.902Z,23.00
2022-08-07T16:47:51.001Z,23.00
2022-08-07T16:52:52.251Z,23.00
2022-08-07T16:58:01.197Z,23.00
2022-08-07T17:02:51.921Z,23.00
2022-08-07T17:07:51.899Z,23.00
2022-08-07T17:12:44.812Z,23.00
2022-08-07T17:17:44.399Z,22.94
2022-08-07T17:22:42.651Z,22.94
2022-08-07T17:27:50.909Z,22.87
2022-08-07T17:32:51.855Z,22.87
2022-08-07T17:38:07.320Z,22.87
2022-08-07T17:42:58.058Z,22.87
2022-08-07T17:47:45.657Z,22.81
2022-08-07T17:52:51.029Z,22.81
2022-08-07T17:57:56.171Z,22.75
2022-08-07T18:02:53.959Z,22.75
2022-08-07T18:07:55.774Z,22.69
2022-08-07T18:12:56.417Z,22.62
2022-08-07T18:18:36.838Z,22.62
2022-08-07T18:22:53.034Z,22.56
2022-08-07T18:27:58.617Z,22.50
2022-08-07T18:32:54.436Z,22.44
2022-08-07T18:38:54.681Z,22.37
2022-08-07T18:42:58.220Z,22.31
2022-08-07T18:48:03.752Z,22.25
2022-08-07T18:53:04.486Z,22.19
2022-08-07T18:58:05.262Z,22.06
2022-08-07T19:03:12.252Z,22.06
2022-08-07T19:08:06.719Z,21.94
2022-08-07T19:13:10.536Z,21.94
2022-08-07T19:18:03.602Z,21.81
2022-08-07T19:23:18.062Z,21.62
2022-08-07T19:28:31.364Z,21.44
2022-08-07T19:33:15.367Z,21.31
2022-08-07T19:38:15.270Z,21.19
2022-08-07T19:43:10.664Z,21.06
2022-08-07T19:48:18.585Z,21.00
2022-08-07T19:54:30.258Z,20.87
2022-08-07T19:58:14.328Z,20.81
2022-08-07T20:03:34.413Z,20.75
2022-08-07T20:08:18.109Z,20.62
2022-08-07T20:13:15.961Z,20.56
2022-08-07T20:18:19.928Z,20.44
2022-08-07T20:23:23.550Z,20.37
2022-08-07T20:28:18.674Z,20.25
2022-08-07T20:33:24.153Z,20.12
2022-08-07T20:38:25.412Z,20.06
2022-08-07T20:43:26.611Z,19.94
2022-08-07T20:48:29.132Z,19.87
2022-08-07T20:54:02.585Z,19.87
2022-08-07T20:58:33.837Z,19.75
2022-08-07T21:03:30.193Z,19.69
2022-08-07T21:08:37.354Z,19.62
2022-08-07T21:13:44.193Z,19.50
2022-08-07T21:18:40.936Z,19.50
2022-08-07T21:23:35.298Z,19.37
2022-08-07T21:26:39.421Z,19.31
2022-08-07T21:32:43.224Z,19.25
2022-08-07T21:36:50.143Z,19.19
2022-08-07T21:41:52.467Z,19.12
2022-08-07T21:46:45.671Z,19.06
2022-08-07T21:51:51.581Z,19.00
2022-08-07T21:56:47.854Z,18.94
2022-08-07T22:02:07.807Z,18.87
2022-08-07T22:06:49.694Z,18.81
2022-08-07T22:11:53.253Z,18.87
2022-08-07T22:16:46.753Z,18.69
2022-08-07T22:22:02.968Z,18.62
2022-08-07T22:26:51.466Z,18.56
2022-08-07T22:31:59.790Z,18.50
2022-08-07T22:36:53.134Z,18.44
2022-08-07T22:42:02.877Z,18.37
2022-08-07T22:47:03.287Z,18.37
2022-08-07T22:51:51.903Z,18.25
2022-08-07T22:56:55.894Z,18.25
2022-08-07T23:01:51.807Z,18.19
2022-08-07T23:06:55.299Z,18.19
2022-08-07T23:11:58.982Z,18.06
2022-08-07T23:17:01.562Z,18.06
2022-08-07T23:21:57.372Z,17.94
2022-08-07T23:27:02.879Z,17.87
2022-08-07T23:32:49.937Z,17.81
2022-08-07T23:37:17.990Z,17.81
2022-08-07T23:42:01.945Z,17.75
2022-08-07T23:47:05.883Z,17.69
2022-08-07T23:53:02.295Z,17.62
2022-08-07T23:57:09.179Z,17.50
